< < Back
Terminal Aerodrome Forecast


Current Version              Previous Versions:   1  2  3  4  5  6  7  8  9  

Terminal Aerodrome Forecast

680
FTUS42 KJAX 272347
TAFJAX
TAF
KJAX 272347Z 2800/2824 09009KT P6SM SCT035 BKN250
     FM280200 10004KT P6SM SCT020 BKN250
     FM281500 10010G15KT P6SM SCT030 BKN250=

Latest METAR

821
SAUS80 KWBC 280600 RRA
MTRJAX
METAR KJAX 280556Z 05004KT 10SM FEW030 SCT250 19/18 A3015 RMK AO2 SLP210
T01940178 10250 20189 58012


USA.gov is the U.S. government's official web portal to all federal, state and local government web resources and services.